createdAt,value
2018-02-07T00:01:27.367Z,94.83
2018-02-07T00:03:54.935Z,93.13
2018-02-07T00:06:22.483Z,89.37
2018-02-07T00:08:50.459Z,84.37
2018-02-07T00:11:17.994Z,85.47
2018-02-07T00:13:45.935Z,86.50
2018-02-07T00:16:13.474Z,86.23
2018-02-07T00:18:41.863Z,82.17
2018-02-07T00:21:09.447Z,80.77
2018-02-07T00:23:37.022Z,81.93
2018-02-07T00:26:04.598Z,82.73
2018-02-07T00:28:32.146Z,80.23
2018-02-07T00:30:59.694Z,79.53
2018-02-07T00:33:27.286Z,76.33
2018-02-07T00:35:54.842Z,77.80
2018-02-07T00:38:22.389Z,77.67
2018-02-07T00:40:49.973Z,72.37
2018-02-07T00:43:17.554Z,71.20
2018-02-07T00:45:45.098Z,71.20
2018-02-07T00:48:12.687Z,70.40
2018-02-07T00:50:40.243Z,68.80
2018-02-07T00:53:07.786Z,69.80
2018-02-07T00:55:35.370Z,68.27
2018-02-07T00:58:02.913Z,69.17
2018-02-07T01:00:30.472Z,69.80
2018-02-07T01:02:58.049Z,71.23
2018-02-07T01:05:25.603Z,66.63
2018-02-07T01:07:53.262Z,67.87
2018-02-07T01:10:20.801Z,71.90
2018-02-07T01:12:48.355Z,68.40
2018-02-07T01:15:15.933Z,69.43
2018-02-07T01:17:43.517Z,70.07
2018-02-07T01:20:11.063Z,70.37
2018-02-07T01:22:38.604Z,71.90
2018-02-07T01:25:06.223Z,70.87
2018-02-07T01:27:34.247Z,73.33
2018-02-07T01:30:02.100Z,67.40
2018-02-07T01:32:29.691Z,67.00
2018-02-07T01:34:57.544Z,70.13
2018-02-07T01:37:25.125Z,72.60
2018-02-07T01:39:52.675Z,67.93
2018-02-07T01:42:20.257Z,69.90
2018-02-07T01:44:47.797Z,68.73
2018-02-07T01:47:15.337Z,70.10
2018-02-07T01:49:43.137Z,70.70
2018-02-07T01:52:10.692Z,68.90
2018-02-07T01:54:38.286Z,68.97
2018-02-07T01:57:05.821Z,72.67
2018-02-07T01:59:33.923Z,73.57
2018-02-07T02:02:01.471Z,76.97
2018-02-07T02:04:29.018Z,75.20
2018-02-07T02:06:56.597Z,70.07
2018-02-07T02:09:24.178Z,72.27
2018-02-07T02:11:52.026Z,75.07
2018-02-07T02:14:19.746Z,77.53
2018-02-07T02:16:47.281Z,82.63
2018-02-07T02:19:14.868Z,81.57
2018-02-07T02:21:42.419Z,101.00
2018-02-07T02:24:10.006Z,115.13
2018-02-07T02:26:37.555Z,88.07
2018-02-07T02:29:05.147Z,93.30
2018-02-07T02:31:32.925Z,82.53
2018-02-07T02:34:00.512Z,79.77
2018-02-07T02:36:39.954Z,80.37
2018-02-07T02:39:07.546Z,77.07
2018-02-07T02:41:35.086Z,78.90
2018-02-07T02:44:02.688Z,80.60
2018-02-07T02:46:30.278Z,79.77
2018-02-07T02:48:57.822Z,75.60
2018-02-07T02:51:25.406Z,70.43
2018-02-07T02:53:53.238Z,77.47
2018-02-07T02:56:20.823Z,72.00
2018-02-07T02:58:48.407Z,69.83
2018-02-07T03:01:16.233Z,68.87
2018-02-07T03:03:43.831Z,70.47
2018-02-07T03:06:11.418Z,66.00
2018-02-07T03:08:38.953Z,66.10
2018-02-07T03:11:06.560Z,66.43
2018-02-07T03:13:34.102Z,64.00
2018-02-07T03:16:01.654Z,63.33
2018-02-07T03:18:29.242Z,60.73
2018-02-07T03:20:56.826Z,67.23
2018-02-07T03:23:24.422Z,71.07
2018-02-07T03:25:52.001Z,73.70
2018-02-07T03:28:19.547Z,68.20
2018-02-07T03:30:47.125Z,68.70
2018-02-07T03:33:14.749Z,73.33
2018-02-07T03:35:42.330Z,67.50
2018-02-07T03:38:09.865Z,68.13
2018-02-07T03:40:37.455Z,67.73
2018-02-07T03:43:04.993Z,64.00
2018-02-07T03:45:32.856Z,68.67
2018-02-07T03:48:00.459Z,64.20
2018-02-07T03:50:28.005Z,63.37
2018-02-07T03:52:55.559Z,65.40
2018-02-07T03:55:23.133Z,63.63
2018-02-07T03:57:50.743Z,68.07
2018-02-07T04:00:18.322Z,68.90
2018-02-07T04:02:45.910Z,66.13
2018-02-07T04:05:13.454Z,64.60
2018-02-07T04:07:41.068Z,60.67
2018-02-07T04:10:09.140Z,59.07
2018-02-07T04:12:36.731Z,63.83
2018-02-07T04:15:04.499Z,62.47
2018-02-07T04:17:32.262Z,64.07
2018-02-07T04:19:59.843Z,60.67
2018-02-07T04:22:27.386Z,59.27
2018-02-07T04:24:54.978Z,57.03
2018-02-07T04:27:22.521Z,57.47
2018-02-07T04:29:50.095Z,57.80
2018-02-07T04:32:18.510Z,54.93
2018-02-07T04:34:46.047Z,52.17
2018-02-07T04:37:13.628Z,53.27
2018-02-07T04:39:41.170Z,57.13
2018-02-07T04:42:08.745Z,57.27
2018-02-07T04:44:36.312Z,53.37
2018-02-07T04:47:03.899Z,54.40
2018-02-07T04:49:31.861Z,50.33
2018-02-07T04:51:59.434Z,50.43
2018-02-07T04:54:27.015Z,47.53
2018-02-07T04:56:54.590Z,48.70
2018-02-07T04:59:22.715Z,48.30
2018-02-07T05:01:50.265Z,47.03
2018-02-07T05:04:17.851Z,46.33
2018-02-07T05:06:45.396Z,44.80
2018-02-07T05:09:12.982Z,42.70
2018-02-07T05:11:40.800Z,43.10
2018-02-07T05:14:08.740Z,42.60
2018-02-07T05:16:36.278Z,42.90
2018-02-07T05:19:04.347Z,42.30
2018-02-07T05:21:31.912Z,44.63
2018-02-07T05:23:59.441Z,44.67
2018-02-07T05:26:27.026Z,46.17
2018-02-07T05:28:54.567Z,45.57
2018-02-07T05:31:22.157Z,48.50
2018-02-07T05:33:49.690Z,47.50
2018-02-07T05:36:17.229Z,51.13
2018-02-07T05:38:45.074Z,49.73
2018-02-07T05:41:12.610Z,54.75
2018-02-07T05:43:40.282Z,48.93
2018-02-07T05:46:07.962Z,46.20
2018-02-07T05:48:35.497Z,51.30
2018-02-07T05:51:03.050Z,48.20
2018-02-07T05:53:30.649Z,45.60
2018-02-07T05:55:58.250Z,44.03
2018-02-07T05:58:25.785Z,42.38
2018-02-07T06:00:53.336Z,42.50
2018-02-07T06:03:20.928Z,40.33
2018-02-07T06:05:48.485Z,42.60
2018-02-07T06:08:16.017Z,41.33
2018-02-07T06:10:43.607Z,43.55
2018-02-07T06:13:11.141Z,40.30
2018-02-07T06:15:39.508Z,37.17
2018-02-07T06:18:07.099Z,38.80
2018-02-07T06:20:34.860Z,37.93
2018-02-07T06:23:02.449Z,41.92
2018-02-07T06:25:30.793Z,36.93
2018-02-07T06:27:58.338Z,36.93
2018-02-07T06:30:25.981Z,36.20
2018-02-07T06:32:53.502Z,36.23
2018-02-07T06:35:21.233Z,40.97
2018-02-07T06:37:48.792Z,36.73
2018-02-07T06:40:16.330Z,35.63
2018-02-07T06:42:43.919Z,41.30
2018-02-07T06:45:11.522Z,39.27
2018-02-07T06:47:39.187Z,37.70
2018-02-07T06:50:06.878Z,39.17
2018-02-07T06:52:34.612Z,40.38
2018-02-07T06:55:02.473Z,42.90
2018-02-07T06:57:30.102Z,40.03
2018-02-07T06:59:58.875Z,40.20
2018-02-07T07:02:26.632Z,40.73
2018-02-07T07:04:54.216Z,40.10
2018-02-07T07:07:21.763Z,43.38
2018-02-07T07:09:49.350Z,43.65
2018-02-07T07:12:16.900Z,41.75
2018-02-07T07:14:45.146Z,39.30
2018-02-07T07:17:12.733Z,39.57
2018-02-07T07:19:40.676Z,43.83
2018-02-07T07:22:08.285Z,39.30
2018-02-07T07:24:36.133Z,40.63
2018-02-07T07:27:05.394Z,37.63
2018-02-07T07:29:33.011Z,42.00
2018-02-07T07:32:00.608Z,41.78
2018-02-07T07:34:28.673Z,40.88
2018-02-07T07:36:56.956Z,38.87
2018-02-07T07:39:24.505Z,41.63
2018-02-07T07:41:52.060Z,40.07
2018-02-07T07:44:19.646Z,40.55
2018-02-07T07:46:47.197Z,39.83
2018-02-07T07:49:16.378Z,39.10
2018-02-07T07:51:44.085Z,42.40
2018-02-07T07:54:11.678Z,41.97
2018-02-07T07:56:39.239Z,41.88
2018-02-07T07:59:06.832Z,39.60
2018-02-07T08:01:34.425Z,39.22
2018-02-07T08:04:02.084Z,39.60
2018-02-07T08:06:29.630Z,39.60
2018-02-07T08:08:57.231Z,38.37
2018-02-07T08:11:25.549Z,37.03
2018-02-07T08:13:53.396Z,38.23
2018-02-07T08:16:20.992Z,38.03
2018-02-07T08:18:48.673Z,41.53
2018-02-07T08:21:16.382Z,42.78
2018-02-07T08:23:44.392Z,38.40
2018-02-07T08:26:11.978Z,40.47
2018-02-07T08:28:41.216Z,38.23
2018-02-07T08:31:08.806Z,39.07
2018-02-07T08:33:36.480Z,37.87
2018-02-07T08:36:04.070Z,37.80
2018-02-07T08:38:31.907Z,39.07
2018-02-07T08:40:59.725Z,35.53
2018-02-07T08:43:27.314Z,41.72
2018-02-07T08:45:54.854Z,41.97
2018-02-07T08:48:22.428Z,39.93
2018-02-07T08:50:51.044Z,37.47
2018-02-07T08:53:18.647Z,37.40
2018-02-07T08:55:46.245Z,41.53
2018-02-07T08:58:14.021Z,42.20
2018-02-07T09:00:41.578Z,42.03
2018-02-07T09:03:09.164Z,36.83
2018-02-07T09:05:37.856Z,36.57
2018-02-07T09:08:05.415Z,41.03
2018-02-07T09:10:33.144Z,38.92
2018-02-07T09:13:01.524Z,37.13
2018-02-07T09:15:29.250Z,37.03
2018-02-07T09:17:57.552Z,37.23
2018-02-07T09:20:25.444Z,39.45
2018-02-07T09:22:53.044Z,35.37
2018-02-07T09:25:21.573Z,44.67
2018-02-07T09:27:49.173Z,44.20
2018-02-07T09:30:16.719Z,44.28
2018-02-07T09:32:44.626Z,42.70
2018-02-07T09:35:12.213Z,42.13
2018-02-07T09:37:40.278Z,50.50
2018-02-07T09:40:07.858Z,45.63
2018-02-07T09:42:35.454Z,41.00
2018-02-07T09:45:03.008Z,44.75
2018-02-07T09:47:31.287Z,45.38
2018-02-07T09:49:59.834Z,46.60
2018-02-07T09:52:27.588Z,45.15
2018-02-07T09:54:55.182Z,46.55
2018-02-07T09:57:22.727Z,43.90
2018-02-07T09:59:50.315Z,45.58
2018-02-07T10:02:18.851Z,46.22
2018-02-07T10:04:47.619Z,40.40
2018-02-07T10:07:15.179Z,39.10
2018-02-07T10:09:43.016Z,40.83
2018-02-07T10:12:11.327Z,43.53
2018-02-07T10:14:38.926Z,42.43
2018-02-07T10:17:06.480Z,40.97
2018-02-07T10:19:34.034Z,38.77
2018-02-07T10:22:01.624Z,37.80
2018-02-07T10:24:29.576Z,39.37
2018-02-07T10:26:57.162Z,39.93
2018-02-07T10:29:25.004Z,40.47
2018-02-07T10:31:52.549Z,39.70
2018-02-07T10:34:20.138Z,39.03
2018-02-07T10:36:47.704Z,43.83
2018-02-07T10:39:15.472Z,38.37
2018-02-07T10:41:43.054Z,38.50
2018-02-07T10:44:10.604Z,38.47
2018-02-07T10:46:38.210Z,44.75
2018-02-07T10:49:06.795Z,42.95
2018-02-07T10:51:34.439Z,38.60
2018-02-07T10:54:02.965Z,38.55
2018-02-07T10:56:30.875Z,36.47
2018-02-07T10:58:58.412Z,39.78
2018-02-07T11:01:25.986Z,37.03
2018-02-07T11:03:54.505Z,36.33
2018-02-07T11:06:22.056Z,38.83
2018-02-07T11:08:50.828Z,35.83
2018-02-07T11:11:18.439Z,35.43
2018-02-07T11:13:46.395Z,36.60
2018-02-07T11:16:14.878Z,34.67
2018-02-07T11:18:42.755Z,40.25
2018-02-07T11:21:12.630Z,35.13
2018-02-07T11:23:40.741Z,35.50
2018-02-07T11:26:08.959Z,35.53
2018-02-07T11:28:37.262Z,38.17
2018-02-07T11:31:04.865Z,35.83
2018-02-07T11:33:33.586Z,36.10
2018-02-07T11:36:01.986Z,36.07
2018-02-07T11:38:30.063Z,39.10
2018-02-07T11:40:58.038Z,43.13
2018-02-07T11:43:25.587Z,39.63
2018-02-07T11:45:53.852Z,42.27
2018-02-07T11:48:21.575Z,40.50
2018-02-07T11:50:49.126Z,38.63
2018-02-07T11:53:16.683Z,44.33
2018-02-07T11:55:44.284Z,44.13
2018-02-07T11:58:11.882Z,43.63
2018-02-07T12:00:39.475Z,42.30
2018-02-07T12:03:07.039Z,45.47
2018-02-07T12:05:35.170Z,42.17
2018-02-07T12:08:02.767Z,44.60
2018-02-07T12:10:30.375Z,48.13
2018-02-07T12:12:57.909Z,45.07
2018-02-07T12:15:25.610Z,39.77
2018-02-07T12:17:53.206Z,38.73
2018-02-07T12:20:20.827Z,42.37
2018-02-07T12:22:48.386Z,42.57
2018-02-07T12:25:15.937Z,44.77
2018-02-07T12:27:43.531Z,41.83
2018-02-07T12:30:11.339Z,40.37
2018-02-07T12:32:38.923Z,47.67
2018-02-07T12:35:06.482Z,50.28
2018-02-07T12:37:34.903Z,47.62
2018-02-07T12:40:04.138Z,44.77
2018-02-07T12:42:31.725Z,51.00
2018-02-07T12:44:59.313Z,48.47
2018-02-07T12:47:27.780Z,45.03
2018-02-07T12:49:55.379Z,43.27
2018-02-07T12:52:22.918Z,42.73
2018-02-07T12:54:50.538Z,49.53
2018-02-07T12:57:18.078Z,43.40
2018-02-07T12:59:45.683Z,50.30
2018-02-07T13:02:13.231Z,42.47
2018-02-07T13:04:40.768Z,48.55
2018-02-07T13:07:08.355Z,43.83
2018-02-07T13:09:36.186Z,44.87
2018-02-07T13:12:04.799Z,45.12
2018-02-07T13:14:32.382Z,41.63
2018-02-07T13:17:00.820Z,45.77
2018-02-07T13:19:28.386Z,45.53
2018-02-07T13:21:56.135Z,41.43
2018-02-07T13:24:23.721Z,41.57
2018-02-07T13:26:51.302Z,41.05
2018-02-07T13:29:19.286Z,46.20
2018-02-07T13:31:46.887Z,47.13
2018-02-07T13:34:14.475Z,43.43
2018-02-07T13:36:42.429Z,45.40
2018-02-07T13:39:10.016Z,42.87
2018-02-07T13:41:37.559Z,40.03
2018-02-07T13:44:05.143Z,42.37
2018-02-07T13:46:32.749Z,41.23
2018-02-07T13:49:00.461Z,39.13
2018-02-07T13:51:28.308Z,46.17
2018-02-07T13:53:55.850Z,43.23
2018-02-07T13:56:23.453Z,44.00
2018-02-07T13:58:50.987Z,42.83
2018-02-07T14:01:18.592Z,42.47
2018-02-07T14:03:46.326Z,41.43
2018-02-07T14:06:13.905Z,42.40
2018-02-07T14:08:41.446Z,48.07
2018-02-07T14:11:08.990Z,59.00
2018-02-07T14:13:36.587Z,57.80
2018-02-07T14:16:04.122Z,50.70
2018-02-07T14:18:31.674Z,51.97
2018-02-07T14:20:59.468Z,54.78
2018-02-07T14:23:27.024Z,50.37
2018-02-07T14:25:54.558Z,51.50
2018-02-07T14:28:22.236Z,50.70
2018-02-07T14:30:49.771Z,45.93
2018-02-07T14:33:17.313Z,54.05
2018-02-07T14:35:45.280Z,48.90
2018-02-07T14:38:12.817Z,59.03
2018-02-07T14:40:40.471Z,52.78
2018-02-07T14:43:08.059Z,51.93
2018-02-07T14:45:36.448Z,52.63
2018-02-07T14:48:04.035Z,49.97
2018-02-07T14:50:31.699Z,45.47
2018-02-07T14:52:59.977Z,54.60
2018-02-07T14:55:27.534Z,57.17
2018-02-07T14:57:55.326Z,51.33
2018-02-07T15:00:23.521Z,56.70
2018-02-07T15:02:51.989Z,47.63
2018-02-07T15:05:20.296Z,48.17
2018-02-07T15:07:47.889Z,48.60
2018-02-07T15:10:15.426Z,52.85
2018-02-07T15:12:42.953Z,46.70
2018-02-07T15:15:10.917Z,58.72
2018-02-07T15:17:38.477Z,54.27
2018-02-07T15:20:06.038Z,50.25
2018-02-07T15:22:33.622Z,45.83
2018-02-07T15:25:03.857Z,58.30
2018-02-07T15:27:31.429Z,51.80
2018-02-07T15:29:59.370Z,47.77
2018-02-07T15:32:27.955Z,49.77
2018-02-07T15:34:55.557Z,53.33
2018-02-07T15:37:23.101Z,50.03
2018-02-07T15:39:50.647Z,52.63
2018-02-07T15:42:18.783Z,48.10
2018-02-07T15:44:46.322Z,50.70
2018-02-07T15:47:15.190Z,52.93
2018-02-07T15:49:42.785Z,51.33
2018-02-07T15:52:10.369Z,52.70
2018-02-07T15:54:37.902Z,53.40
2018-02-07T15:57:06.872Z,53.07
2018-02-07T15:59:35.852Z,55.97
2018-02-07T16:02:04.481Z,60.00
2018-02-07T16:04:32.131Z,61.00
2018-02-07T16:07:00.029Z,69.90
2018-02-07T16:09:27.626Z,60.00
2018-02-07T16:11:55.609Z,57.33
2018-02-07T16:14:23.939Z,56.30
2018-02-07T16:16:52.370Z,54.67
2018-02-07T16:19:19.995Z,52.00
2018-02-07T16:21:48.771Z,52.90
2018-02-07T16:24:16.611Z,51.97
2018-02-07T16:26:44.195Z,49.97
2018-02-07T16:29:11.730Z,51.00
2018-02-07T16:31:39.323Z,50.03
2018-02-07T16:34:07.013Z,49.27
2018-02-07T16:36:34.592Z,47.40
2018-02-07T16:39:02.130Z,48.10
2018-02-07T16:41:30.308Z,48.13
2018-02-07T16:43:57.898Z,47.30
2018-02-07T16:46:25.452Z,49.67
2018-02-07T16:48:52.986Z,60.13
2018-02-07T16:51:20.990Z,50.07
2018-02-07T16:53:49.982Z,48.10
2018-02-07T16:56:17.845Z,46.63
2018-02-07T16:58:46.290Z,47.03
2018-02-07T17:01:14.639Z,46.87
2018-02-07T17:03:42.634Z,45.17
2018-02-07T17:06:10.723Z,43.77
2018-02-07T17:08:39.254Z,44.27
2018-02-07T17:11:07.760Z,45.47
2018-02-07T17:13:35.695Z,43.80
2018-02-07T17:16:03.279Z,43.97
2018-02-07T17:18:31.381Z,42.67
2018-02-07T17:21:00.069Z,43.70
2018-02-07T17:23:27.619Z,42.10
2018-02-07T17:25:55.357Z,43.70
2018-02-07T17:28:23.918Z,41.30
2018-02-07T17:30:51.454Z,39.80
2018-02-07T17:33:19.083Z,43.10
2018-02-07T17:35:47.260Z,42.27
2018-02-07T17:38:15.915Z,41.10
2018-02-07T17:40:43.765Z,42.00
2018-02-07T17:43:11.322Z,41.43
2018-02-07T17:45:38.926Z,41.17
2018-02-07T17:48:07.318Z,44.63
2018-02-07T17:50:34.983Z,44.87
2018-02-07T17:53:03.339Z,46.13
2018-02-07T17:55:31.949Z,48.93
2018-02-07T17:58:01.756Z,49.17
2018-02-07T18:00:30.220Z,48.77
2018-02-07T18:02:58.883Z,49.77
2018-02-07T18:05:27.655Z,53.57
2018-02-07T18:07:56.380Z,53.93
2018-02-07T18:10:23.914Z,60.83
2018-02-07T18:12:52.376Z,60.73
2018-02-07T18:15:19.951Z,56.73
2018-02-07T18:17:48.631Z,60.37
2018-02-07T18:20:16.522Z,65.80
2018-02-07T18:22:44.054Z,68.13
2018-02-07T18:25:12.192Z,65.73
2018-02-07T18:27:40.147Z,67.07
2018-02-07T18:30:07.722Z,72.83
2018-02-07T18:32:35.502Z,68.20
2018-02-07T18:35:03.326Z,71.93
2018-02-07T18:37:31.066Z,72.03
2018-02-07T18:39:58.986Z,80.27
2018-02-07T18:42:26.854Z,71.60
2018-02-07T18:44:55.454Z,78.10
2018-02-07T18:47:25.350Z,73.60
2018-02-07T18:49:52.934Z,70.87
2018-02-07T18:52:20.518Z,74.90
2018-02-07T18:54:49.262Z,67.70
2018-02-07T18:57:17.976Z,62.83
2018-02-07T18:59:45.547Z,60.40
2018-02-07T19:02:13.940Z,63.57
2018-02-07T19:04:42.017Z,63.83
2018-02-07T19:07:09.545Z,55.30
2018-02-07T19:09:37.145Z,65.67
2018-02-07T19:12:04.681Z,59.43
2018-02-07T19:14:32.219Z,62.07
2018-02-07T19:16:59.814Z,62.27
2018-02-07T19:19:27.463Z,66.53
2018-02-07T19:21:55.466Z,67.90
2018-02-07T19:24:23.842Z,70.83
2018-02-07T19:26:52.380Z,66.93
2018-02-07T19:29:20.295Z,69.27
2018-02-07T19:31:47.831Z,72.73
2018-02-07T19:34:15.753Z,69.60
2018-02-07T19:36:45.867Z,76.53
2018-02-07T19:39:15.089Z,75.00
2018-02-07T19:41:43.506Z,73.57
2018-02-07T19:44:12.825Z,71.10
2018-02-07T19:46:40.546Z,85.93
2018-02-07T19:49:08.103Z,76.20
2018-02-07T19:51:35.691Z,74.57
2018-02-07T19:54:04.675Z,73.47
2018-02-07T19:56:33.666Z,72.53
2018-02-07T19:59:01.394Z,71.17
2018-02-07T20:01:29.223Z,73.30
2018-02-07T20:03:56.814Z,69.77
2018-02-07T20:06:26.185Z,64.27
2018-02-07T20:08:53.844Z,62.17
2018-02-07T20:11:23.253Z,58.73
2018-02-07T20:13:51.612Z,59.83
2018-02-07T20:16:20.156Z,63.33
2018-02-07T20:18:49.769Z,59.03
2018-02-07T20:21:17.687Z,57.17
2018-02-07T20:23:45.655Z,58.33
2018-02-07T20:26:13.608Z,56.73
2018-02-07T20:28:42.592Z,53.67
2018-02-07T20:31:10.130Z,58.13
2018-02-07T20:33:37.912Z,59.93
2018-02-07T20:36:06.936Z,55.57
2018-02-07T20:38:34.699Z,55.23
2018-02-07T20:41:02.245Z,56.70
2018-02-07T20:43:31.035Z,56.93
2018-02-07T20:45:59.874Z,56.27
2018-02-07T20:48:28.417Z,57.23
2018-02-07T20:50:56.562Z,58.13
2018-02-07T20:53:24.953Z,59.03
2018-02-07T20:55:52.703Z,66.10
2018-02-07T20:58:20.462Z,66.63
2018-02-07T21:00:48.376Z,59.80
2018-02-07T21:03:16.407Z,58.23
2018-02-07T21:05:44.849Z,56.40
2018-02-07T21:08:12.421Z,57.87
2018-02-07T21:10:39.967Z,57.20
2018-02-07T21:13:07.557Z,58.43
2018-02-07T21:15:35.445Z,60.97
2018-02-07T21:18:02.991Z,62.23
2018-02-07T21:20:30.575Z,57.23
2018-02-07T21:22:58.230Z,61.60
2018-02-07T21:25:27.406Z,56.70
2018-02-07T21:27:55.207Z,64.33
2018-02-07T21:30:24.734Z,61.67
2018-02-07T21:32:52.322Z,65.50
2018-02-07T21:35:19.857Z,61.17
2018-02-07T21:37:47.404Z,70.90
2018-02-07T21:40:15.058Z,75.57
2018-02-07T21:42:43.682Z,67.90
2018-02-07T21:45:11.770Z,70.20
2018-02-07T21:47:39.792Z,72.07
2018-02-07T21:50:11.271Z,72.47
2018-02-07T21:52:39.366Z,73.77
2018-02-07T21:55:06.902Z,72.77
2018-02-07T21:57:34.473Z,68.70
2018-02-07T22:00:02.055Z,72.10
2018-02-07T22:02:29.611Z,69.53
2018-02-07T22:04:57.203Z,67.73
2018-02-07T22:07:24.749Z,66.40
2018-02-07T22:09:52.285Z,65.23
2018-02-07T22:12:19.872Z,65.33
2018-02-07T22:14:47.458Z,60.90
2018-02-07T22:17:15.053Z,62.10
2018-02-07T22:19:43.174Z,60.03
2018-02-07T22:22:11.569Z,59.93
2018-02-07T22:24:39.105Z,58.27
2018-02-07T22:27:06.683Z,56.43
2018-02-07T22:29:34.275Z,56.60
2018-02-07T22:32:01.862Z,61.67
2018-02-07T22:34:29.445Z,60.50
2018-02-07T22:36:57.079Z,66.43
2018-02-07T22:39:24.623Z,58.90
2018-02-07T22:41:52.162Z,60.60
2018-02-07T22:44:19.889Z,59.57
2018-02-07T22:46:47.421Z,62.67
2018-02-07T22:49:15.006Z,61.73
2018-02-07T22:51:42.560Z,63.97
2018-02-07T22:54:10.646Z,61.43
2018-02-07T22:56:38.240Z,59.53
2018-02-07T22:59:06.172Z,57.93
2018-02-07T23:01:33.759Z,62.63
2018-02-07T23:04:01.290Z,59.17
2018-02-07T23:06:28.994Z,60.67
2018-02-07T23:08:56.570Z,60.30
2018-02-07T23:11:24.110Z,59.03
2018-02-07T23:13:51.696Z,56.33
2018-02-07T23:16:19.269Z,56.63
2018-02-07T23:18:46.814Z,59.67
2018-02-07T23:21:14.385Z,57.57
2018-02-07T23:23:41.913Z,59.47
2018-02-07T23:26:09.499Z,63.73
2018-02-07T23:28:37.189Z,61.27
2018-02-07T23:31:04.742Z,56.17
2018-02-07T23:33:32.314Z,57.97
2018-02-07T23:35:59.854Z,58.80
2018-02-07T23:38:27.455Z,58.57
2018-02-07T23:40:54.993Z,55.77
2018-02-07T23:43:22.581Z,59.83
2018-02-07T23:45:50.174Z,60.80
2018-02-07T23:48:17.718Z,60.50
2018-02-07T23:50:45.247Z,53.70
2018-02-07T23:53:12.835Z,56.27
2018-02-07T23:55:40.373Z,61.63
2018-02-07T23:58:08.006Z,64.63
